Skip Navigation Links Skip Navigation Links

Current Weather

Cambridge Bay Apt, Cambridge Bay, N.T.

For information only: do not use for flight planning or navigation.
Latest weather
Observation time Saturday, October 19, 2019 4:00 AM MDT
Local time Saturday, October 19, 2019 4:20 AM MDT
Flight conditions Visual Meteorological Conditions
Winds
Wind direction Northeast (40°)
Wind speed 31 mph
Wind gusting to 41 mph
Visibility 6 mi.
Present weather blowing snow
Sky condition
Ceiling unlimited
Cloud layer scattered clouds 1,100 ft.
Temperature 18°F
Dewpoint 12°F
Altimeter 29.78 in.Hg
Derived measurements
Relative humidity 79%
Wind chill -2°F
Density altitude -2564 ft.
Sea-level pressure 29.80 in.Hg
METAR CYCB 191000Z 04027G36KT 6SM BLSN SCT011 M08/M11 A2978 RMK SC4 SLP090

Settings

Location code

InnerDrive.Weather 4.0.6770.0 Release CLR 4.0.30319.42000
Copyright ©2018 Inner Drive Technology. All rights reserved. Portions Copyright ©1986-2018 David Braverman.

Find weather

Site navigation


Skip Navigation Links

Place info

Page info

PayPal - The safer, easier way to pay online!

Return home.

Copyright ©2019 Inner Drive Technology. Purveyors of fine, hand-crafted computer software. Page printed 2019-10-19T10:20:52 UTC.